Terminal Aerodrome Forecast
Issued by NWS Billings, MT

Home | Current Version | Previous Version | Text Only | Print | Product List | Glossary Off
Versions: 1 2 3 4 5 6 7 8 9 10 11 12 13 14 15 16 17 18

000
FTUS45 KBYZ 230539
TAFMLS
TAF
KMLS 230539Z 2306/2406 02005KT P6SM VCSH OVC050
     FM230800 02008KT P6SM -RA OVC015
     FM231500 06008KT P6SM VCSH OVC035=

USA.gov is the U.S. government's official web portal to all federal, state and local government web resources and services.